Latest Weather Observations for Gayndah

IDQ60801

Issued at 5:32 pm EST Thursday 9 April 2020 (issued every 10 minutes, with the page automatically refreshed every 10 minutes)

About weather observations | Map of weather stations | Latest weather observations for QLD | Other Formats
Station Details ID: 039066 Name: GAYNDAH AIRPORT Lat: -25.62 Lon: 151.62 Height: 110.9 m
Data from the previous 72 hours. | See also: Recent months at Gayndah
Date/Time
EST
Temp
°C
App
Temp
°C
Dew
Point
°C
Rel
Hum
%
Delta-T
°C
Wind Press
QNH
hPa
Press
MSL
hPa
Rain since
9am
mm
Dir  Spd
km/h
Gust
km/h
Spd
kts
Gust
kts
09/05:30pm 21.9 23.8 17.7 77 2.6 SSW 4 6 2 3 1020.4 1020.0 0.4
09/05:00pm 22.1 24.1 17.9 77 2.6 SE 4 4 2 2 1020.3 1019.9 0.4
09/04:30pm 22.0 24.8 18.0 78 2.5 CALM 0 0 0 0 1020.1 1019.7 0.4
09/04:00pm 21.6 23.6 17.8 79 2.4 NNE 4 6 2 3 1020.0 1019.6 0.4
09/03:30pm 21.8 22.6 17.4 76 2.7 NNE 9 19 5 10 1019.9 1019.5 0.4
09/03:00pm 22.1 22.7 16.8 72 3.2 NNE 9 13 5 7 1019.9 1019.5 0.4
09/02:30pm 22.4 20.9 16.4 69 3.7 NNE 19 24 10 13 1020.0 1019.6 0.4
09/02:00pm 22.7 21.6 17.4 72 3.3 NNE 19 26 10 14 1019.8 1019.4 0.2
09/01:30pm 27.3 26.0 14.7 46 7.6 ESE 15 20 8 11 1019.6 1019.2 0.0
09/01:00pm 27.3 25.3 15.0 47 7.5 E 19 28 10 15 1019.9 1019.5 0.0
09/12:30pm 27.0 25.2 14.4 46 7.6 E 17 26 9 14 1020.3 1019.9 0.0
09/12:00pm 25.8 26.0 15.8 54 6.1 ESE 9 19 5 10 1021.0 1020.6 0.0
09/11:30am 24.8 24.2 15.7 57 5.5 ENE 13 19 7 10 1021.7 1021.3 0.0
09/11:00am 24.2 24.5 15.9 59 5.0 NE 9 15 5 8 1022.0 1021.6 0.0
09/10:30am 22.6 23.7 17.1 71 3.4 E 7 13 4 7 1022.4 1022.0 0.0
09/10:00am 21.4 21.7 18.0 81 2.1 NE 13 22 7 12 1022.8 1022.4 0.0
09/09:30am 20.7 20.8 18.3 86 1.5 NE 15 28 8 15 1022.9 1022.5 0.0
09/09:00am 22.4 22.3 16.0 67 3.9 ENE 11 17 6 9 1022.4 1022.0 0.0
09/08:30am 22.4 23.0 16.7 70 3.5 ENE 9 13 5 7 1022.2 1021.8 0.0
09/08:00am 21.0 22.7 17.2 79 2.3 ENE 4 6 2 3 1021.7 1021.3 0.0
09/07:30am 20.1 21.8 17.1 83 1.8 ENE 4 6 2 3 1021.4 1021.0 0.0
09/07:00am 20.0 22.3 16.8 82 1.9 CALM 0 0 0 0 1021.1 1020.7 0.0
09/06:30am 19.6 21.9 16.8 84 1.7 CALM 0 6 0 3 1020.6 1020.2 0.0
09/06:00am 19.5 21.9 16.9 85 1.6 CALM 0 0 0 0 1020.3 1019.9 0.0
09/05:30am 19.5 21.7 16.5 83 1.8 CALM 0 0 0 0 1020.2 1019.8 0.0
09/05:00am 19.8 22.1 16.8 83 1.8 CALM 0 0 0 0 1019.8 1019.4 0.0
09/04:30am 19.7 22.0 16.7 83 1.8 CALM 0 0 0 0 1019.5 1019.1 0.0
09/04:00am 19.7 22.0 16.7 83 1.8 CALM 0 0 0 0 1019.3 1018.9 0.0
09/03:30am 19.4 21.0 17.0 86 1.5 SE 4 7 2 4 1019.3 1018.9 0.0
09/03:00am 19.4 20.7 17.0 86 1.5 SE 6 9 3 5 1019.4 1019.0 0.0
09/02:30am 20.1 19.4 16.3 79 2.3 E 15 20 8 11 1019.2 1018.8 0.0
09/02:00am 20.8 21.7 16.0 74 2.9 E 6 7 3 4 1019.3 1018.9 0.0
09/01:30am 20.9 22.5 15.9 73 3.0 E 2 4 1 2 1019.4 1019.0 0.0
09/01:00am 21.0 21.8 15.8 72 3.1 ESE 6 9 3 5 1019.4 1019.0 0.0
09/12:30am 21.2 21.8 15.7 71 3.3 ESE 7 13 4 7 1019.6 1019.2 0.0
09/12:00am 21.3 21.5 15.8 71 3.3 E 9 11 5 6 1019.7 1019.3 0.0
 
Date/Time
EST
Temp
°C
App
Temp
°C
Dew
Point
°C
Rel
Hum
%
Delta-T
°C
Wind Press
QNH
hPa
Press
MSL
hPa
Rain since
9am
mm
Dir  Spd
km/h
Gust
km/h
Spd
kts
Gust
kts
08/11:30pm 21.4 21.6 15.7 70 3.4 E 9 13 5 7 1019.7 1019.3 0.0
08/11:00pm 21.5 21.3 15.8 70 3.4 E 11 17 6 9 1019.8 1019.4 0.0
08/10:30pm 21.2 21.9 15.7 71 3.3 E 6 9 3 5 1019.8 1019.4 0.0
08/10:00pm 21.0 21.5 15.5 71 3.3 NE 7 11 4 6 1019.6 1019.2 0.0
08/09:30pm 21.0 21.4 15.3 70 3.4 E 7 13 4 7 1019.5 1019.1 0.0
08/09:00pm 21.0 21.4 15.3 70 3.4 E 7 13 4 7 1019.5 1019.1 0.0
08/08:30pm 21.1 20.8 15.4 70 3.4 E 11 17 6 9 1019.2 1018.8 0.0
08/08:00pm 21.6 20.6 15.7 69 3.5 ESE 15 24 8 13 1019.0 1018.6 0.0
08/07:30pm 22.6 20.9 15.7 65 4.2 E 19 24 10 13 1018.3 1017.9 0.0
08/07:00pm 23.1 21.6 15.4 62 4.6 E 17 24 9 13 1017.7 1017.3 0.0
08/06:30pm 23.4 22.3 15.2 60 4.9 E 15 26 8 14 1017.1 1016.6 0.0
08/06:00pm 24.3 22.6 15.8 59 5.2 E 19 28 10 15 1016.5 1016.0 0.0
08/05:30pm 25.2 24.8 15.2 54 6.0 E 11 17 6 9 1016.1 1015.6 0.0
08/05:00pm 25.5 24.6 14.9 52 6.4 ESE 13 15 7 8 1015.9 1015.4 0.0
08/04:30pm 25.9 25.2 15.3 52 6.4 ENE 13 19 7 10 1015.6 1015.1 0.0
08/04:00pm 26.2 25.1 15.3 51 6.6 E 15 19 8 10 1015.2 1014.7 0.0
08/03:30pm 28.0 25.6 15.3 46 7.8 ENE 22 28 12 15 1015.0 1014.5 0.0
08/03:00pm 27.9 27.8 14.9 45 7.9 E 9 19 5 10 1014.8 1014.3 0.0
08/02:30pm 27.4 25.9 14.1 44 8.0 ESE 15 22 8 12 1015.0 1014.5 0.0
08/02:00pm 27.5 27.5 14.2 44 8.0 S 7 17 4 9 1015.2 1014.7 0.0
08/01:30pm 28.3 26.7 14.9 44 8.2 SSE 17 24 9 13 1015.5 1015.0 0.0
08/01:00pm 28.4 27.8 15.7 46 7.8 SE 13 26 7 14 1015.7 1015.2 0.0
08/12:30pm 27.4 26.5 14.8 46 7.6 E 13 19 7 10 1016.1 1015.6 0.0
08/12:00pm 27.6 27.7 15.6 48 7.4 E 9 19 5 10 1016.6 1016.1 0.0
08/11:30am 27.5 25.9 13.8 43 8.2 ESE 15 24 8 13 1017.1 1016.6 0.0
08/11:00am 25.8 25.4 15.2 52 6.4 ESE 11 20 6 11 1017.8 1017.4 0.0
08/10:30am 26.4 25.2 15.1 49 6.9 ENE 15 26 8 14 1018.2 1017.8 0.0
08/10:00am 24.7 24.1 15.6 57 5.5 ESE 13 22 7 12 1018.4 1018.0 0.0
08/09:30am 24.8 25.1 16.0 58 5.4 ESE 9 15 5 8 1018.5 1018.1 0.0
08/09:00am 22.7 22.7 15.3 63 4.4 SE 9 13 5 7 1018.4 1018.0 0.0
08/08:30am 22.4 22.5 15.5 65 4.1 SE 9 15 5 8 1018.3 1017.9 0.0
08/08:00am 20.9 21.5 15.4 71 3.3 SW 6 7 3 4 1018.2 1017.8 0.0
08/07:30am 18.8 19.6 14.7 77 2.4 SW 4 6 2 3 1017.8 1017.4 0.0
08/07:00am 17.3 17.5 14.8 85 1.4 WSW 7 9 4 5 1017.3 1016.8 0.0
08/06:30am 15.7 16.0 14.4 92 0.7 W 6 7 3 4 1017.1 1016.6 0.0
08/06:00am 14.8 15.4 13.2 90 0.9 W 2 4 1 2 1016.6 1016.1 0.0
08/05:30am 14.7 15.7 13.2 91 0.8 CALM 0 6 0 3 1016.5 1016.0 0.0
08/05:00am 15.4 15.2 13.1 86 1.3 WSW 6 7 3 4 1016.4 1015.9 0.0
08/04:30am 15.9 16.1 14.3 90 0.9 WSW 6 7 3 4 1016.1 1015.6 0.0
08/04:00am 15.6 15.8 14.3 92 0.7 W 6 7 3 4 1016.0 1015.5 0.0
08/03:30am 15.1 16.1 13.3 89 1.0 CALM 0 4 0 2 1015.9 1015.4 0.0
08/03:00am 15.4 16.2 13.6 89 1.0 SW 2 6 1 3 1015.9 1015.4 0.0
08/02:30am 16.4 16.9 13.9 85 1.4 WSW 4 6 2 3 1015.9 1015.4 0.0
08/02:00am 16.7 17.7 14.2 85 1.4 WSW 2 6 1 3 1016.0 1015.5 0.0
08/01:30am 17.3 18.0 14.6 84 1.6 SSW 4 6 2 3 1016.2 1015.7 0.0
08/01:00am 17.3 18.7 14.4 83 1.7 CALM 0 4 0 2 1016.4 1015.9 0.0
08/12:30am 17.7 19.3 14.8 83 1.7 CALM 0 0 0 0 1016.5 1016.0 0.0
08/12:00am 17.9 19.0 13.6 76 2.4 CALM 0 0 0 0 1016.5 1016.0 0.0
 
Date/Time
EST
Temp
°C
App
Temp
°C
Dew
Point
°C
Rel
Hum
%
Delta-T
°C
Wind Press
QNH
hPa
Press
MSL
hPa
Rain since
9am
mm
Dir  Spd
km/h
Gust
km/h
Spd
kts
Gust
kts
07/11:30pm 18.6 19.8 13.7 73 2.8 CALM 0 0 0 0 1016.8 1016.3 0.0
07/11:00pm 19.1 20.4 14.1 73 2.9 CALM 0 0 0 0 1016.8 1016.3 0.0
07/10:30pm 19.7 20.7 14.3 71 3.1 NE 2 2 1 1 1016.8 1016.3 0.0
07/10:00pm 20.4 20.7 14.5 69 3.5 ENE 6 7 3 4 1016.9 1016.4 0.0
07/09:30pm 20.7 20.8 14.4 67 3.7 ENE 7 9 4 5 1016.7 1016.2 0.0
07/09:00pm 21.4 21.4 14.3 64 4.2 ENE 7 9 4 5 1016.6 1016.1 0.0
07/08:30pm 22.2 22.4 14.3 61 4.6 ENE 6 6 3 3 1016.5 1016.0 0.0
07/08:00pm 22.6 22.8 14.2 59 4.9 ENE 6 7 3 4 1016.1 1015.6 0.0
07/07:30pm 23.7 23.7 14.1 55 5.7 ENE 7 9 4 5 1015.6 1015.1 0.0
07/07:00pm 24.5 23.4 14.3 53 6.1 ENE 13 19 7 10 1015.0 1014.5 0.0
07/06:30pm 24.1 23.8 13.3 51 6.3 ENE 7 9 4 5 1014.7 1014.2 0.0
07/06:00pm 25.6 25.1 12.8 45 7.5 E 7 11 4 6 1014.1 1013.7 0.0
07/05:30pm 26.6 26.0 12.3 41 8.3 E 7 17 4 9 1013.7 1013.3 0.0
07/05:00pm 26.9 26.1 11.8 39 8.7 E 7 9 4 5 1013.4 1013.0 0.0
07/04:30pm 27.7 26.3 12.1 38 9.1 ESE 11 15 6 8 1013.4 1013.0 0.0
07/04:00pm 29.4 27.6 11.0 32 10.6 NE 11 19 6 10 1013.1 1012.7 0.0
07/03:30pm 29.1 27.9 10.3 31 10.7 E 7 13 4 7 1013.2 1012.8 0.0
07/03:00pm 28.8 26.1 10.5 32 10.4 SE 15 24 8 13 1013.4 1013.0 0.0
07/02:30pm 28.8 27.4 9.0 29 11.0 ENE 6 17 3 9 1013.6 1013.2 0.0
07/02:00pm 28.9 27.0 10.6 32 10.4 SE 11 19 6 10 1013.9 1013.5 0.0
07/01:30pm 28.9 26.8 12.3 36 9.7 E 15 26 8 14 1014.3 1013.8 0.0
07/01:00pm 27.9 24.9 12.7 39 8.9 ESE 20 28 11 15 1014.8 1014.3 0.0
07/12:30pm 27.7 24.9 13.3 41 8.5 ESE 20 30 11 16 1015.3 1014.8 0.0
07/12:00pm 26.7 24.3 13.8 45 7.7 E 19 28 10 15 1016.0 1015.5 0.0
07/11:30am 27.1 25.7 14.5 46 7.6 E 15 22 8 12 1016.4 1015.9 0.0
07/11:00am 26.9 25.2 14.6 46 7.4 ESE 17 28 9 15 1016.9 1016.4 0.0
07/10:30am 26.2 24.6 15.0 50 6.8 ESE 17 26 9 14 1017.4 1016.9 0.0
07/10:00am 26.5 25.0 15.2 49 6.9 E 17 24 9 13 1017.5 1017.1 0.0
07/09:30am 25.5 24.4 15.2 53 6.2 E 15 26 8 14 1017.7 1017.3 0.0
07/09:00am 23.8 24.2 15.3 59 5.1 E 7 13 4 7 1017.6 1017.2 0.0
07/08:30am 22.3 23.6 15.2 64 4.2 SE 2 6 1 3 1017.7 1017.3 0.0
07/08:00am 20.1 21.2 14.5 70 3.3 WSW 2 6 1 3 1017.4 1016.9 0.0
07/07:30am 18.3 19.5 13.8 75 2.6 CALM 0 0 0 0 1017.2 1016.7 0.0
07/07:00am 16.1 17.0 13.0 82 1.7 CALM 0 0 0 0 1016.8 1016.3 0.0
07/06:30am 14.4 15.3 13.0 91 0.8 CALM 0 0 0 0 1016.5 1016.0 0.0
07/06:00am 14.2 14.7 11.7 85 1.3 CALM 0 0 0 0 1016.2 1015.7 0.0
07/05:30am 14.7 15.4 12.2 85 1.4 CALM 0 0 0 0 1016.0 1015.5 0.0
07/05:00am 15.1 15.4 12.2 83 1.6 WNW 2 2 1 1 1015.7 1015.2 0.0
07/04:30am 16.0 17.0 13.1 83 1.6 CALM 0 2 0 1 1015.6 1015.1 0.0
07/04:00am 16.1 16.7 13.2 83 1.6 SW 2 4 1 2 1015.5 1015.0 0.0
07/03:30am 15.6 15.4 11.8 78 2.1 SW 4 4 2 2 1015.7 1015.2 0.0
07/03:00am 16.0 16.2 12.0 77 2.2 WSW 2 4 1 2 1015.7 1015.2 0.0
07/02:30am 16.4 16.5 12.6 78 2.1 SW 4 6 2 3 1015.6 1015.1 0.0
07/02:00am 16.4 16.0 12.4 77 2.2 SSW 6 6 3 3 1015.7 1015.2 0.0
07/01:30am 16.3 16.7 11.2 72 2.8 CALM 0 2 0 1 1016.0 1015.5 0.0
07/01:00am 15.8 15.5 11.6 76 2.3 S 4 6 2 3 1016.0 1015.5 0.0
07/12:30am 16.5 16.0 10.6 68 3.2 S 4 4 2 2 1016.3 1015.8 0.0
07/12:00am 16.5 15.7 9.7 64 3.6 S 4 6 2 3 1016.3 1015.8 0.0
 
Date/Time
EST
Temp
°C
App
Temp
°C
Dew
Point
°C
Rel
Hum
%
Delta-T
°C
Wind Press
QNH
hPa
Press
MSL
hPa
Rain since
9am
mm
Dir  Spd
km/h
Gust
km/h
Spd
kts
Gust
kts
06/11:30pm 16.9 16.0 9.3 61 4.0 SSW 4 4 2 2 1016.3 1015.8 0.0
06/11:00pm 16.4 15.4 8.9 61 3.9 SSE 4 6 2 3 1016.4 1015.9 0.0
06/10:30pm 17.1 16.4 10.2 64 3.7 SSE 4 6 2 3 1016.6 1016.1 0.0
06/10:00pm 19.2 18.0 9.7 54 5.1 NW 6 6 3 3 1016.5 1016.0 0.0
06/09:30pm 19.2 19.0 9.1 52 5.3 CALM 0 0 0 0 1016.5 1016.0 0.0
06/09:00pm 19.4 17.8 8.7 50 5.6 E 7 9 4 5 1016.3 1015.8 0.0
06/08:30pm 19.9 17.7 7.9 46 6.2 NNE 9 11 5 6 1015.9 1015.4 0.0
06/08:00pm 20.5 19.2 6.1 39 7.2 S 2 4 1 2 1015.2 1014.7 0.0
06/07:30pm 21.0 19.8 4.6 34 8.0 CALM 0 0 0 0 1014.9 1014.4 0.0
06/07:00pm 22.4 21.1 4.0 30 9.0 CALM 0 0 0 0 1014.4 1013.9 0.0
06/06:30pm 24.8 22.7 4.0 26 10.3 SW 4 6 2 3 1013.9 1013.5 0.0
06/06:00pm 25.7 23.2 3.6 24 11.0 SW 6 7 3 4 1013.6 1013.2 0.0

Other formats

Comma delimited format used in spreadsheet applications
http://www.bom.gov.au/fwo/IDQ60801/IDQ60801.95543.axf

JavaScript Object Notation format (JSON) in row-major order
http://www.bom.gov.au/fwo/IDQ60801/IDQ60801.95543.json

Data quality

Most of these data are generated automatically and are frequently updated. Quality checks on data are not normally performed. It is possible for incorrect values to appear. Refer to information at About Latest Weather Observations and please check the disclaimer before using these data.